createdAt,value
2018-02-24T00:00:38.242Z,8.37
2018-02-24T00:03:20.942Z,10.30
2018-02-24T00:05:59.394Z,8.70
2018-02-24T00:08:30.686Z,7.73
2018-02-24T00:11:22.816Z,8.53
2018-02-24T00:20:29.127Z,7.73
2018-02-24T00:23:00.002Z,8.27
2018-02-24T00:28:55.634Z,7.50
2018-02-24T00:31:24.072Z,8.00
2018-02-24T00:33:52.034Z,7.03
2018-02-24T00:36:19.794Z,7.73
2018-02-24T00:38:47.563Z,7.23
2018-02-24T00:41:15.401Z,8.27
2018-02-24T00:43:43.176Z,8.70
2018-02-24T00:46:12.235Z,7.77
2018-02-24T00:48:40.164Z,7.97
2018-02-24T00:51:08.071Z,8.87
2018-02-24T00:53:36.825Z,7.90
2018-02-24T00:56:04.730Z,8.87
2018-02-24T00:58:32.596Z,8.07
2018-02-24T01:01:00.358Z,7.60
2018-02-24T01:03:28.170Z,7.47
2018-02-24T01:05:55.981Z,8.00
2018-02-24T01:08:23.749Z,6.63
2018-02-24T01:10:52.339Z,6.93
2018-02-24T01:13:20.185Z,8.07
2018-02-24T01:15:48.028Z,6.93
2018-02-24T01:18:15.814Z,7.50
2018-02-24T01:20:43.609Z,7.47
2018-02-24T01:23:11.473Z,7.80
2018-02-24T01:25:40.116Z,7.87
2018-02-24T01:28:07.875Z,6.93
2018-02-24T01:30:35.682Z,8.10
2018-02-24T01:33:03.472Z,8.33
2018-02-24T01:35:31.301Z,10.17
2018-02-24T01:37:59.138Z,7.30
2018-02-24T01:40:26.952Z,8.67
2018-02-24T01:42:54.779Z,8.03
2018-02-24T01:45:22.566Z,8.57
2018-02-24T01:47:50.413Z,9.03
2018-02-24T01:50:18.230Z,7.83
2018-02-24T01:52:47.801Z,9.37
2018-02-24T01:55:16.705Z,8.60
2018-02-24T01:57:46.157Z,9.57
2018-02-24T02:00:15.026Z,9.30
2018-02-24T02:02:44.920Z,9.73
2018-02-24T02:05:15.412Z,10.33
2018-02-24T02:07:44.605Z,8.70
2018-02-24T02:10:12.536Z,9.47
2018-02-24T02:12:42.636Z,9.20
2018-02-24T02:15:15.332Z,9.20
2018-02-24T02:44:41.657Z,8.80
2018-02-24T02:50:11.727Z,11.53
2018-02-24T02:52:52.163Z,11.57
2018-02-24T02:55:29.989Z,9.83
2018-02-24T03:01:09.531Z,10.27
2018-02-24T03:03:40.519Z,9.47
2018-02-24T03:06:14.214Z,9.90
2018-02-24T03:08:44.011Z,9.40
2018-02-24T03:11:12.752Z,11.43
2018-02-24T03:13:40.574Z,11.10
2018-02-24T03:16:08.546Z,12.17
2018-02-24T03:18:36.398Z,10.73
2018-02-24T03:21:04.372Z,12.50
2018-02-24T03:23:32.183Z,13.50
2018-02-24T03:25:59.990Z,10.90
2018-02-24T03:28:27.917Z,10.43
2018-02-24T03:30:55.718Z,13.17
2018-02-24T03:33:24.362Z,13.30
2018-02-24T03:35:53.223Z,11.13
2018-02-24T03:38:21.247Z,12.20
2018-02-24T03:40:53.001Z,11.23
2018-02-24T03:43:22.533Z,13.53
2018-02-24T03:45:54.226Z,12.17
2018-02-24T03:48:25.151Z,11.50
2018-02-24T03:50:54.071Z,12.57
2018-02-24T03:53:23.155Z,13.33
2018-02-24T03:55:51.616Z,11.87
2018-02-24T03:58:20.839Z,12.80
2018-02-24T04:00:48.691Z,12.23
2018-02-24T04:03:16.601Z,15.27
2018-02-24T04:05:46.118Z,13.30
2018-02-24T04:08:15.405Z,12.23
2018-02-24T04:10:44.050Z,12.37
2018-02-24T04:13:12.688Z,14.03
2018-02-24T04:15:40.497Z,13.47
2018-02-24T04:18:08.934Z,12.17
2018-02-24T04:20:38.119Z,12.47
2018-02-24T04:23:06.814Z,12.80
2018-02-24T04:25:34.681Z,12.50
2018-02-24T04:28:02.464Z,11.43
2018-02-24T04:30:31.925Z,12.47
2018-02-24T04:32:59.769Z,14.00
2018-02-24T04:35:27.655Z,12.40
2018-02-24T04:37:55.450Z,12.13
2018-02-24T04:40:23.309Z,14.80
2018-02-24T04:42:51.089Z,14.47
2018-02-24T04:45:18.904Z,12.23
2018-02-24T04:47:46.745Z,11.77
2018-02-24T04:50:14.587Z,12.17
2018-02-24T04:52:42.453Z,13.03
2018-02-24T04:55:11.045Z,13.90
2018-02-24T04:57:39.858Z,13.57
2018-02-24T05:00:09.087Z,12.60
2018-02-24T05:02:37.258Z,12.33
2018-02-24T05:05:05.064Z,13.23
2018-02-24T05:07:32.963Z,17.37
2018-02-24T05:10:00.782Z,15.77
2018-02-24T05:12:28.593Z,12.67
2018-02-24T05:14:57.648Z,15.10
2018-02-24T05:17:25.510Z,12.10
2018-02-24T05:19:53.337Z,12.60
2018-02-24T05:22:21.217Z,15.63
2018-02-24T05:24:48.993Z,13.43
2018-02-24T05:27:16.774Z,12.80
2018-02-24T05:29:44.519Z,16.67
2018-02-24T05:32:12.290Z,14.90
2018-02-24T05:34:40.098Z,14.40
2018-02-24T05:37:07.862Z,14.17
2018-02-24T05:39:35.633Z,12.97
2018-02-24T05:42:03.468Z,14.70
2018-02-24T05:44:31.242Z,14.10
2018-02-24T05:46:59.089Z,15.60
2018-02-24T05:49:27.214Z,16.27
2018-02-24T05:51:55.077Z,15.87
2018-02-24T05:54:22.904Z,14.67
2018-02-24T05:56:50.761Z,16.17
2018-02-24T05:59:18.537Z,15.40
2018-02-24T06:02:02.864Z,16.33
2018-02-24T06:04:30.643Z,12.73
2018-02-24T06:06:58.433Z,13.70
2018-02-24T06:09:26.300Z,14.33
2018-02-24T06:11:54.155Z,15.10
2018-02-24T06:14:22.810Z,14.63
2018-02-24T06:16:50.584Z,14.37
2018-02-24T06:19:19.239Z,14.63
2018-02-24T06:21:47.069Z,13.80
2018-02-24T06:24:15.640Z,15.67
2018-02-24T06:26:43.487Z,14.87
2018-02-24T06:29:11.275Z,14.93
2018-02-24T06:31:39.101Z,14.00
2018-02-24T06:34:06.949Z,18.20
2018-02-24T06:36:37.028Z,14.27
2018-02-24T06:39:05.039Z,14.53
2018-02-24T06:41:32.864Z,17.40
2018-02-24T06:44:01.592Z,12.37
2018-02-24T06:46:29.361Z,14.20
2018-02-24T06:48:57.189Z,14.70
2018-02-24T06:51:24.971Z,19.10
2018-02-24T06:53:52.811Z,15.47
2018-02-24T06:56:20.580Z,15.70
2018-02-24T06:58:48.354Z,14.57
2018-02-24T07:01:16.172Z,14.37
2018-02-24T07:03:44.927Z,17.07
2018-02-24T07:06:12.679Z,17.37
2018-02-24T07:08:40.546Z,15.10
2018-02-24T07:11:08.314Z,15.07
2018-02-24T07:13:36.125Z,17.70
2018-02-24T07:16:03.968Z,16.27
2018-02-24T07:18:32.561Z,16.40
2018-02-24T07:21:00.340Z,14.87
2018-02-24T07:23:28.207Z,12.43
2018-02-24T07:25:56.740Z,14.20
2018-02-24T07:28:24.581Z,15.73
2018-02-24T07:30:53.180Z,14.70
2018-02-24T07:33:20.994Z,13.00
2018-02-24T07:35:48.766Z,13.80
2018-02-24T07:38:16.527Z,14.50
2018-02-24T07:40:44.479Z,13.57
2018-02-24T07:43:12.402Z,13.53
2018-02-24T07:45:40.296Z,19.67
2018-02-24T07:48:08.098Z,17.53
2018-02-24T07:50:35.898Z,14.37
2018-02-24T07:53:03.780Z,16.80
2018-02-24T07:55:31.552Z,15.73
2018-02-24T07:58:00.192Z,15.47
2018-02-24T08:00:28.005Z,15.20
2018-02-24T08:02:55.849Z,14.50
2018-02-24T08:05:24.440Z,11.83
2018-02-24T08:07:52.333Z,18.00
2018-02-24T08:10:20.187Z,14.60
2018-02-24T08:12:48.137Z,15.23
2018-02-24T08:15:15.899Z,12.60
2018-02-24T08:17:44.420Z,13.33
2018-02-24T08:20:12.200Z,16.03
2018-02-24T08:22:40.028Z,12.93
2018-02-24T08:25:07.807Z,22.40
2018-02-24T08:27:35.616Z,14.93
2018-02-24T08:30:03.460Z,12.73
2018-02-24T08:32:31.254Z,18.27
2018-02-24T08:34:59.078Z,14.70
2018-02-24T08:37:26.891Z,13.97
2018-02-24T08:39:55.548Z,13.63
2018-02-24T08:42:23.427Z,15.47
2018-02-24T08:44:51.210Z,19.40
2018-02-24T08:47:18.989Z,14.10
2018-02-24T08:49:46.808Z,15.67
2018-02-24T08:52:14.657Z,15.20
2018-02-24T08:54:42.656Z,17.80
2018-02-24T08:57:10.413Z,12.90
2018-02-24T08:59:38.239Z,16.17
2018-02-24T09:02:06.071Z,13.97
2018-02-24T09:04:33.868Z,15.50
2018-02-24T09:07:01.720Z,16.07
2018-02-24T09:09:29.766Z,15.37
2018-02-24T09:14:33.774Z,16.13
2018-02-24T09:17:02.699Z,13.40
2018-02-24T09:19:32.563Z,16.30
2018-02-24T09:22:00.770Z,18.33
2018-02-24T09:24:50.962Z,15.70
2018-02-24T09:27:36.482Z,15.40
2018-02-24T09:30:12.669Z,14.30
2018-02-24T09:32:41.332Z,15.80
2018-02-24T09:35:13.581Z,14.70
2018-02-24T09:37:41.457Z,14.77
2018-02-24T09:40:09.271Z,12.97
2018-02-24T09:42:37.092Z,12.53
2018-02-24T09:45:05.201Z,15.27
2018-02-24T09:47:32.968Z,12.90
2018-02-24T09:50:00.729Z,15.13
2018-02-24T09:52:28.539Z,16.13
2018-02-24T09:54:57.105Z,14.80
2018-02-24T09:57:24.862Z,12.27
2018-02-24T09:59:52.688Z,13.77
2018-02-24T10:02:20.503Z,12.10
2018-02-24T10:04:48.308Z,11.57
2018-02-24T10:07:16.172Z,14.77
2018-02-24T10:09:44.008Z,15.10
2018-02-24T10:12:11.800Z,14.13
2018-02-24T10:14:39.535Z,14.47
2018-02-24T10:17:07.328Z,16.60
2018-02-24T10:19:35.134Z,24.87
2018-02-24T10:22:02.889Z,20.37
2018-02-24T10:24:30.661Z,14.67
2018-02-24T10:26:58.729Z,16.43
2018-02-24T10:29:26.591Z,17.60
2018-02-24T10:31:54.410Z,13.30
2018-02-24T10:34:22.228Z,13.53
2018-02-24T10:36:49.974Z,14.33
2018-02-24T10:39:17.722Z,12.43
2018-02-24T10:41:45.474Z,14.23
2018-02-24T10:44:13.299Z,18.50
2018-02-24T10:46:41.032Z,15.40
2018-02-24T10:49:15.298Z,12.53
2018-02-24T10:51:43.049Z,18.50
2018-02-24T10:54:10.878Z,16.83
2018-02-24T10:56:39.465Z,15.70
2018-02-24T10:59:08.119Z,14.50
2018-02-24T11:01:36.026Z,13.73
2018-02-24T11:04:04.038Z,13.73
2018-02-24T11:06:31.920Z,15.00
2018-02-24T11:08:59.688Z,15.07
2018-02-24T11:11:27.516Z,14.90
2018-02-24T11:13:56.140Z,15.83
2018-02-24T11:16:23.943Z,16.93
2018-02-24T11:18:51.911Z,14.93
2018-02-24T11:21:19.748Z,16.07
2018-02-24T11:23:47.541Z,19.47
2018-02-24T11:26:16.111Z,14.23
2018-02-24T11:28:44.009Z,14.93
2018-02-24T11:31:12.728Z,13.43
2018-02-24T11:33:41.288Z,12.37
2018-02-24T11:36:09.144Z,16.03
2018-02-24T11:38:37.320Z,14.03
2018-02-24T11:41:09.415Z,14.37
2018-02-24T11:43:37.371Z,16.13
2018-02-24T11:46:05.608Z,17.47
2018-02-24T11:48:33.649Z,16.50
2018-02-24T11:51:27.785Z,17.80
2018-02-24T11:53:56.937Z,16.47
2018-02-24T11:56:31.447Z,15.83
2018-02-24T11:58:59.959Z,19.70
2018-02-24T12:01:28.294Z,14.70
2018-02-24T12:03:56.791Z,16.10
2018-02-24T12:06:24.613Z,19.20
2018-02-24T12:08:52.363Z,18.57
2018-02-24T12:11:20.194Z,18.60
2018-02-24T12:13:48.053Z,15.37
2018-02-24T12:16:16.048Z,18.83
2018-02-24T12:18:44.693Z,20.87
2018-02-24T12:21:12.493Z,16.97
2018-02-24T12:24:02.813Z,13.83
2018-02-24T12:26:38.596Z,16.17
2018-02-24T12:29:08.492Z,17.30
2018-02-24T12:31:36.248Z,16.60
2018-02-24T12:34:04.061Z,15.73
2018-02-24T12:36:31.861Z,18.03
2018-02-24T12:38:59.645Z,15.53
2018-02-24T12:41:27.490Z,15.87
2018-02-24T12:43:55.306Z,19.47
2018-02-24T12:46:23.094Z,15.67
2018-02-24T12:48:51.414Z,19.17
2018-02-24T12:51:19.327Z,18.73
2018-02-24T12:53:47.142Z,18.53
2018-02-24T12:56:15.034Z,16.83
2018-02-24T12:58:42.837Z,20.57
2018-02-24T13:01:10.647Z,16.90
2018-02-24T13:03:38.417Z,17.40
2018-02-24T13:06:06.178Z,21.03
2018-02-24T13:08:33.983Z,22.90
2018-02-24T13:11:01.731Z,19.73
2018-02-24T13:13:29.563Z,17.80
2018-02-24T13:15:57.312Z,16.23
2018-02-24T13:18:25.065Z,14.53
2018-02-24T13:20:52.804Z,20.20
2018-02-24T13:23:20.678Z,21.43
2018-02-24T13:25:48.570Z,17.83
2018-02-24T13:28:16.441Z,20.40
2018-02-24T13:30:44.282Z,19.17
2018-02-24T13:33:12.076Z,17.50
2018-02-24T13:35:40.617Z,27.73
2018-02-24T13:38:08.497Z,23.90
2018-02-24T13:40:36.288Z,17.07
2018-02-24T13:43:04.110Z,25.13
2018-02-24T13:45:31.863Z,18.97
2018-02-24T13:47:59.710Z,28.20
2018-02-24T13:50:27.525Z,21.77
2018-02-24T13:52:55.334Z,19.47
2018-02-24T13:55:23.172Z,18.17
2018-02-24T13:57:51.109Z,21.67
2018-02-24T14:00:18.907Z,17.87
2018-02-24T14:02:46.665Z,21.93
2018-02-24T14:05:15.190Z,22.40
2018-02-24T14:07:42.982Z,22.30
2018-02-24T14:10:10.758Z,20.13
2018-02-24T14:12:38.592Z,17.70
2018-02-24T14:15:06.343Z,22.40
2018-02-24T14:17:34.160Z,23.67
2018-02-24T14:20:01.968Z,25.10
2018-02-24T14:22:29.835Z,22.33
2018-02-24T14:24:57.709Z,20.80
2018-02-24T14:27:26.253Z,25.43
2018-02-24T14:29:54.028Z,19.20
2018-02-24T14:32:21.836Z,18.17
2018-02-24T14:34:49.646Z,19.97
2018-02-24T14:37:17.414Z,24.17
2018-02-24T14:39:45.185Z,18.50
2018-02-24T14:42:13.015Z,29.30
2018-02-24T14:44:40.768Z,18.00
2018-02-24T14:47:08.512Z,27.10
2018-02-24T14:49:37.026Z,21.93
2018-02-24T14:52:04.833Z,17.90
2018-02-24T14:54:32.607Z,18.50
2018-02-24T14:57:00.383Z,19.53
2018-02-24T14:59:28.223Z,17.67
2018-02-24T15:01:55.944Z,21.63
2018-02-24T15:04:23.746Z,21.40
2018-02-24T15:06:51.600Z,19.30
2018-02-24T15:09:19.389Z,21.10
2018-02-24T15:11:47.148Z,20.23
2018-02-24T15:14:14.946Z,21.00
2018-02-24T15:16:42.695Z,22.93
2018-02-24T15:19:10.445Z,21.10
2018-02-24T15:21:38.289Z,19.13
2018-02-24T15:24:06.098Z,17.07
2018-02-24T15:26:33.962Z,21.03
2018-02-24T15:29:01.724Z,17.00
2018-02-24T15:31:29.537Z,19.67
2018-02-24T15:33:57.293Z,27.90
2018-02-24T15:36:25.110Z,24.30
2018-02-24T15:38:52.896Z,21.83
2018-02-24T15:41:20.636Z,21.20
2018-02-24T15:43:48.996Z,16.77
2018-02-24T15:46:17.516Z,19.53
2018-02-24T15:48:45.336Z,17.63
2018-02-24T15:51:13.120Z,18.73
2018-02-24T15:53:40.940Z,19.80
2018-02-24T15:56:08.745Z,21.10
2018-02-24T15:58:37.238Z,31.37
2018-02-24T16:01:06.036Z,25.97
2018-02-24T16:03:34.586Z,24.00
2018-02-24T16:06:02.371Z,20.70
2018-02-24T16:08:31.700Z,26.40
2018-02-24T16:10:59.514Z,20.77
2018-02-24T16:13:27.270Z,19.23
2018-02-24T16:15:55.052Z,20.37
2018-02-24T16:18:22.912Z,21.87
2018-02-24T16:20:51.708Z,25.70
2018-02-24T16:23:19.538Z,20.53
2018-02-24T16:25:47.336Z,20.03
2018-02-24T16:28:15.242Z,19.90
2018-02-24T16:30:43.044Z,20.13
2018-02-24T16:33:11.598Z,22.70
2018-02-24T16:35:40.096Z,22.97
2018-02-24T16:38:08.271Z,24.77
2018-02-24T16:40:36.205Z,20.57
2018-02-24T16:43:04.462Z,20.93
2018-02-24T16:45:32.285Z,24.67
2018-02-24T16:48:01.942Z,21.30
2018-02-24T16:50:29.719Z,20.10
2018-02-24T16:52:57.612Z,21.13
2018-02-24T16:55:25.410Z,24.77
2018-02-24T16:57:53.227Z,19.80
2018-02-24T17:00:21.003Z,20.77
2018-02-24T17:02:48.787Z,21.47
2018-02-24T17:05:17.318Z,18.37
2018-02-24T17:07:45.118Z,21.03
2018-02-24T17:10:12.851Z,20.27
2018-02-24T17:12:40.580Z,24.43
2018-02-24T17:15:08.324Z,19.77
2018-02-24T17:17:36.133Z,25.77
2018-02-24T17:20:03.929Z,21.73
2018-02-24T17:22:31.671Z,24.10
2018-02-24T17:24:59.461Z,23.13
2018-02-24T17:27:27.206Z,16.50
2018-02-24T17:29:55.001Z,24.40
2018-02-24T17:32:22.775Z,23.23
2018-02-24T17:34:50.527Z,22.30
2018-02-24T17:37:18.424Z,20.40
2018-02-24T17:39:52.769Z,22.10
2018-02-24T17:42:21.413Z,21.47
2018-02-24T17:44:49.287Z,25.50
2018-02-24T17:47:17.066Z,30.13
2018-02-24T17:49:44.827Z,19.00
2018-02-24T17:52:12.624Z,28.30
2018-02-24T17:54:41.191Z,21.60
2018-02-24T17:57:09.416Z,20.57
2018-02-24T17:59:37.220Z,25.47
2018-02-24T18:02:05.069Z,26.97
2018-02-24T18:04:32.893Z,28.50
2018-02-24T18:07:00.660Z,26.17
2018-02-24T18:09:28.442Z,36.70
2018-02-24T18:11:57.027Z,33.23
2018-02-24T18:14:24.859Z,39.22
2018-02-24T18:16:52.605Z,43.80
2018-02-24T18:19:20.384Z,35.00
2018-02-24T18:21:48.189Z,30.00
2018-02-24T18:24:15.991Z,30.13
2018-02-24T18:26:43.845Z,28.10
2018-02-24T18:29:12.551Z,24.10
2018-02-24T18:31:40.390Z,29.47
2018-02-24T18:34:08.133Z,25.93
2018-02-24T18:36:36.699Z,34.47
2018-02-24T18:39:04.506Z,35.30
2018-02-24T18:41:32.768Z,33.50
2018-02-24T18:44:00.655Z,31.03
2018-02-24T18:46:28.409Z,28.40
2018-02-24T18:48:56.936Z,35.00
2018-02-24T18:51:24.692Z,25.63
2018-02-24T18:53:54.701Z,32.00
2018-02-24T18:56:22.549Z,41.60
2018-02-24T18:58:51.159Z,35.83
2018-02-24T19:01:18.989Z,31.10
2018-02-24T19:03:46.778Z,39.70
2018-02-24T19:06:15.344Z,35.43
2018-02-24T19:08:44.051Z,37.90
2018-02-24T19:11:12.004Z,33.83
2018-02-24T19:13:39.736Z,25.40
2018-02-24T19:16:07.509Z,35.73
2018-02-24T19:18:35.285Z,28.50
2018-02-24T19:21:05.719Z,23.47
2018-02-24T19:23:33.552Z,29.23
2018-02-24T19:26:01.380Z,37.03
2018-02-24T19:28:29.270Z,35.10
2018-02-24T19:30:57.039Z,37.07
2018-02-24T19:33:24.764Z,26.67
2018-02-24T19:35:52.486Z,28.53
2018-02-24T19:38:20.318Z,27.40
2018-02-24T19:40:48.051Z,25.07
2018-02-24T19:43:15.790Z,31.10
2018-02-24T19:45:43.571Z,27.13
2018-02-24T19:48:11.380Z,26.37
2018-02-24T19:50:39.539Z,24.77
2018-02-24T19:53:07.547Z,28.50
2018-02-24T19:55:35.332Z,30.00
2018-02-24T19:58:03.092Z,27.13
2018-02-24T20:00:31.918Z,34.67
2018-02-24T20:03:03.338Z,28.80
2018-02-24T20:08:23.204Z,28.73
2018-02-24T20:10:51.739Z,28.70
2018-02-24T20:13:20.029Z,25.93
2018-02-24T20:15:48.232Z,30.70
2018-02-24T20:18:16.135Z,27.17
2018-02-24T20:20:51.967Z,29.70
2018-02-24T20:23:20.729Z,24.00
2018-02-24T20:26:10.427Z,24.50
2018-02-24T20:28:41.549Z,25.77
2018-02-24T20:31:28.980Z,25.80
2018-02-24T20:34:02.613Z,22.07
2018-02-24T20:36:40.448Z,26.60
2018-02-24T20:39:10.118Z,26.57
2018-02-24T20:41:38.129Z,22.33
2018-02-24T20:44:07.085Z,29.80
2018-02-24T20:46:40.407Z,28.87
2018-02-24T20:49:10.405Z,24.27
2018-02-24T20:51:45.906Z,29.53
2018-02-24T20:54:13.712Z,23.43
2018-02-24T20:56:41.506Z,30.80
2018-02-24T20:59:11.063Z,28.60
2018-02-24T21:01:39.383Z,25.93
2018-02-24T21:04:07.209Z,29.53
2018-02-24T21:06:35.035Z,29.70
2018-02-24T21:09:02.776Z,35.90
2018-02-24T21:11:33.247Z,26.90
2018-02-24T21:14:01.177Z,31.50
2018-02-24T21:16:30.902Z,33.77
2018-02-24T21:19:05.457Z,30.10
2018-02-24T21:21:33.268Z,33.70
2018-02-24T21:24:01.209Z,31.57
2018-02-24T21:26:29.487Z,35.33
2018-02-24T21:29:16.495Z,29.47
2018-02-24T21:31:44.339Z,27.83
2018-02-24T21:34:12.942Z,25.17
2018-02-24T21:36:40.797Z,28.23
2018-02-24T21:39:08.609Z,40.63
2018-02-24T21:41:36.387Z,28.40
2018-02-24T21:44:04.185Z,35.20
2018-02-24T21:46:31.927Z,31.30
2018-02-24T21:48:59.749Z,32.47
2018-02-24T21:51:27.550Z,33.10
2018-02-24T21:53:55.307Z,28.93
2018-02-24T21:56:23.145Z,28.87
2018-02-24T21:58:50.951Z,28.70
2018-02-24T22:01:19.594Z,30.67
2018-02-24T22:03:47.566Z,30.10
2018-02-24T22:06:15.397Z,31.20
2018-02-24T22:08:43.124Z,26.20
2018-02-24T22:11:10.957Z,27.77
2018-02-24T22:13:38.821Z,29.37
2018-02-24T22:16:06.685Z,27.03
2018-02-24T22:18:35.223Z,29.93
2018-02-24T22:21:05.474Z,26.10
2018-02-24T22:23:34.780Z,28.57
2018-02-24T22:26:03.685Z,27.17
2018-02-24T22:28:31.435Z,28.27
2018-02-24T22:30:59.225Z,25.70
2018-02-24T22:33:27.025Z,31.63
2018-02-24T22:35:54.785Z,25.03
2018-02-24T22:38:23.313Z,30.17
2018-02-24T22:40:51.096Z,32.77
2018-02-24T22:46:02.886Z,32.03
2018-02-24T22:48:36.354Z,28.87
2018-02-24T22:51:04.114Z,37.30
2018-02-24T22:53:31.836Z,31.23
2018-02-24T22:55:59.584Z,28.50
2018-02-24T22:58:27.368Z,35.93
2018-02-24T23:00:56.874Z,35.97
2018-02-24T23:03:24.694Z,29.97
2018-02-24T23:05:55.211Z,32.30
2018-02-24T23:08:22.999Z,31.00
2018-02-24T23:10:51.592Z,31.20
2018-02-24T23:13:19.329Z,30.63
2018-02-24T23:15:47.831Z,30.00
2018-02-24T23:18:15.635Z,30.00
2018-02-24T23:20:43.437Z,34.10
2018-02-24T23:23:11.221Z,34.37
2018-02-24T23:25:39.000Z,32.73
2018-02-24T23:28:10.470Z,33.97
2018-02-24T23:30:38.225Z,36.77
2018-02-24T23:33:06.033Z,32.30
2018-02-24T23:35:34.734Z,34.90
2018-02-24T23:38:02.559Z,35.70
2018-02-24T23:40:30.363Z,32.20
2018-02-24T23:42:58.162Z,35.30
2018-02-24T23:45:25.905Z,34.47
2018-02-24T23:47:53.739Z,31.40
2018-02-24T23:50:21.555Z,33.87
2018-02-24T23:52:49.381Z,29.43
2018-02-24T23:55:17.243Z,30.73
2018-02-24T23:57:44.989Z,28.63
